createdAt,value
2018-11-01T00:02:08.366Z,48.30
2018-11-01T00:04:37.366Z,48.20
2018-11-01T00:07:06.465Z,48.30
2018-11-01T00:09:36.261Z,44.30
2018-11-01T00:12:06.159Z,26.70
2018-11-01T00:14:36.085Z,16.70
2018-11-01T00:17:05.752Z,10.90
2018-11-01T00:19:35.323Z,3.20
2018-11-01T00:22:04.720Z,1.00
2018-11-01T00:24:34.634Z,1.00
2018-11-01T00:27:04.463Z,1.00
2018-11-01T00:29:34.048Z,1.00
2018-11-01T00:32:03.356Z,1.00
2018-11-01T00:34:33.056Z,1.00
2018-11-01T00:37:02.540Z,12.30
2018-11-01T00:39:31.795Z,24.00
2018-11-01T00:42:01.458Z,25.50
2018-11-01T00:44:30.754Z,25.50
2018-11-01T00:46:59.780Z,24.00
2018-11-01T00:49:29.569Z,23.50
2018-11-01T00:51:58.841Z,25.20
2018-11-01T00:54:28.136Z,28.00
2018-11-01T00:56:57.434Z,27.50
2018-11-01T00:59:26.719Z,25.70
2018-11-01T01:01:56.019Z,25.20
2018-11-01T01:04:25.839Z,24.00
2018-11-01T01:06:55.694Z,26.80
2018-11-01T01:09:24.999Z,20.90
2018-11-01T01:11:54.256Z,21.80
2018-11-01T01:14:24.176Z,21.90
2018-11-01T01:16:53.482Z,20.20
2018-11-01T01:19:22.818Z,18.50
2018-11-01T01:21:52.100Z,20.70
2018-11-01T01:24:21.974Z,17.10
2018-11-01T01:26:50.990Z,17.00
2018-11-01T01:29:20.614Z,17.00
2018-11-01T01:31:50.105Z,17.10
2018-11-01T01:34:19.233Z,11.70
2018-11-01T01:36:48.734Z,10.00
2018-11-01T01:39:18.012Z,13.00
2018-11-01T01:41:47.284Z,14.40
2018-11-01T01:44:16.668Z,18.70
2018-11-01T01:46:46.141Z,23.00
2018-11-01T01:49:15.623Z,24.90
2018-11-01T01:51:44.921Z,25.80
2018-11-01T01:54:14.547Z,32.60
2018-11-01T01:56:43.871Z,35.80
2018-11-01T01:59:13.194Z,36.90
2018-11-01T02:01:42.670Z,37.50
2018-11-01T02:04:12.044Z,35.80
2018-11-01T02:06:41.501Z,27.60
2018-11-01T02:09:12.563Z,24.40
2018-11-01T02:11:43.235Z,18.80
2018-11-01T02:14:12.973Z,5.30
2018-11-01T02:16:42.922Z,3.90
2018-11-01T02:19:12.162Z,1.00
2018-11-01T02:21:41.452Z,1.00
2018-11-01T02:24:10.973Z,1.00
2018-11-01T02:26:40.224Z,1.60
2018-11-01T02:29:09.572Z,1.00
2018-11-01T02:31:38.881Z,1.00
2018-11-01T02:34:08.184Z,1.00
2018-11-01T02:36:37.486Z,1.00
2018-11-01T02:39:09.348Z,1.00
2018-11-01T02:41:39.220Z,1.00
2018-11-01T02:44:09.324Z,1.00
2018-11-01T02:46:39.181Z,1.00
2018-11-01T02:49:09.254Z,1.00
2018-11-01T02:51:38.815Z,1.00
2018-11-01T02:54:08.144Z,1.00
2018-11-01T02:56:37.146Z,1.00
2018-11-01T02:59:07.141Z,1.00
2018-11-01T03:01:37.271Z,1.00
2018-11-01T03:04:06.839Z,1.00
2018-11-01T03:06:36.167Z,1.00
2018-11-01T03:09:07.442Z,1.50
2018-11-01T03:11:36.737Z,1.00
2018-11-01T03:14:06.711Z,1.00
2018-11-01T03:16:36.119Z,9.80
2018-11-01T03:19:06.281Z,4.80
2018-11-01T03:21:35.602Z,1.00
2018-11-01T03:24:05.349Z,1.00
2018-11-01T03:26:35.474Z,1.00
2018-11-01T03:29:05.657Z,1.00
2018-11-01T03:31:34.948Z,1.00
2018-11-01T03:34:04.614Z,1.00
2018-11-01T03:36:33.865Z,5.60
2018-11-01T03:39:04.331Z,1.90
2018-11-01T03:41:33.697Z,1.00
2018-11-01T03:44:02.991Z,1.00
2018-11-01T03:46:32.376Z,1.00
2018-11-01T03:49:01.655Z,1.00
2018-11-01T03:51:31.404Z,1.00
2018-11-01T03:54:01.780Z,1.00
2018-11-01T03:56:31.083Z,1.00
2018-11-01T03:59:00.311Z,1.00
2018-11-01T04:01:29.585Z,1.00
2018-11-01T04:03:59.719Z,1.00
2018-11-01T04:06:29.062Z,1.00
2018-11-01T04:08:58.614Z,1.00
2018-11-01T04:11:27.892Z,1.00
2018-11-01T04:13:57.316Z,1.00
2018-11-01T04:16:26.587Z,1.00
2018-11-01T04:18:56.043Z,1.00
2018-11-01T04:21:25.273Z,1.00
2018-11-01T04:23:54.853Z,1.00
2018-11-01T04:26:24.154Z,1.00
2018-11-01T04:28:53.468Z,1.00
2018-11-01T04:31:23.067Z,1.00
2018-11-01T04:33:52.416Z,1.00
2018-11-01T04:36:21.797Z,1.00
2018-11-01T04:38:51.213Z,1.00
2018-11-01T04:41:20.523Z,1.00
2018-11-01T04:43:50.159Z,1.00
2018-11-01T04:46:19.412Z,1.00
2018-11-01T04:48:48.664Z,1.00
2018-11-01T04:51:18.016Z,1.00
2018-11-01T04:53:47.325Z,1.00
2018-11-01T04:56:17.273Z,1.00
2018-11-01T04:58:46.569Z,1.00
2018-11-01T05:01:19.258Z,1.00
2018-11-01T05:03:48.572Z,1.00
2018-11-01T05:06:17.984Z,1.00
2018-11-01T05:08:47.291Z,1.00
2018-11-01T05:11:17.373Z,1.00
2018-11-01T05:13:47.471Z,1.00
2018-11-01T05:16:16.771Z,1.00
2018-11-01T05:18:46.389Z,1.00
2018-11-01T05:21:16.424Z,1.00
2018-11-01T05:23:45.731Z,1.00
2018-11-01T05:26:15.272Z,1.00
2018-11-01T05:28:44.537Z,1.00
2018-11-01T05:31:13.880Z,1.00
2018-11-01T05:33:43.470Z,1.00
2018-11-01T05:36:12.735Z,1.00
2018-11-01T05:38:42.008Z,1.00
2018-11-01T05:41:11.271Z,1.00
2018-11-01T05:43:40.581Z,1.00
2018-11-01T05:46:09.838Z,1.00
2018-11-01T05:48:39.128Z,1.00
2018-11-01T05:51:08.409Z,1.00
2018-11-01T05:53:37.672Z,1.00
2018-11-01T05:56:07.191Z,1.00
2018-11-01T05:58:36.463Z,1.00
2018-11-01T06:01:07.902Z,1.00
2018-11-01T06:03:37.822Z,1.00
2018-11-01T06:06:07.464Z,1.00
2018-11-01T06:08:39.758Z,1.00
2018-11-01T06:11:09.115Z,1.00
2018-11-01T06:13:38.400Z,1.00
2018-11-01T06:16:07.708Z,1.00
2018-11-01T06:18:37.333Z,1.00
2018-11-01T06:21:06.644Z,1.00
2018-11-01T06:23:35.944Z,1.00
2018-11-01T06:26:05.668Z,1.00
2018-11-01T06:28:35.099Z,1.00
2018-11-01T06:31:04.396Z,1.00
2018-11-01T06:33:33.746Z,1.00
2018-11-01T06:36:06.500Z,1.00
2018-11-01T06:38:36.024Z,1.00
2018-11-01T06:41:05.886Z,1.00
2018-11-01T06:43:35.177Z,1.00
2018-11-01T06:46:04.885Z,1.00
2018-11-01T06:48:34.223Z,1.00
2018-11-01T06:51:03.741Z,1.00
2018-11-01T06:53:33.020Z,1.00
2018-11-01T06:56:02.640Z,1.00
2018-11-01T06:58:32.409Z,1.00
2018-11-01T07:01:02.116Z,1.00
2018-11-01T07:03:31.744Z,1.00
2018-11-01T07:06:01.044Z,1.00
2018-11-01T07:08:31.052Z,1.00
2018-11-01T07:11:00.581Z,1.00
2018-11-01T07:13:29.887Z,1.00
2018-11-01T07:15:59.451Z,1.00
2018-11-01T07:18:28.764Z,1.00
2018-11-01T07:20:58.069Z,1.00
2018-11-01T07:23:27.367Z,6.30
2018-11-01T07:25:56.762Z,17.70
2018-11-01T07:28:26.180Z,20.90
2018-11-01T07:30:55.589Z,21.50
2018-11-01T07:33:24.890Z,21.50
2018-11-01T07:35:54.214Z,19.90
2018-11-01T07:38:23.475Z,15.50
2018-11-01T07:40:52.773Z,17.50
2018-11-01T07:43:22.055Z,17.50
2018-11-01T07:45:51.998Z,16.40
2018-11-01T07:48:21.312Z,16.50
2018-11-01T07:50:50.612Z,27.80
2018-11-01T07:53:20.353Z,39.20
2018-11-01T07:55:49.623Z,32.90
2018-11-01T07:58:19.136Z,21.90
2018-11-01T08:00:48.296Z,21.40
2018-11-01T08:03:17.843Z,13.90
2018-11-01T08:05:47.416Z,8.70
2018-11-01T08:08:16.811Z,7.70
2018-11-01T08:10:46.107Z,1.00
2018-11-01T08:13:15.490Z,2.30
2018-11-01T08:15:44.838Z,1.00
2018-11-01T08:18:14.442Z,17.50
2018-11-01T08:20:43.882Z,24.20
2018-11-01T08:23:13.313Z,28.80
2018-11-01T08:25:42.961Z,24.20
2018-11-01T08:28:12.518Z,23.70
2018-11-01T08:30:41.842Z,20.00
2018-11-01T08:33:11.238Z,34.90
2018-11-01T08:35:40.325Z,33.40
2018-11-01T08:38:09.729Z,25.10
2018-11-01T08:40:39.018Z,21.70
2018-11-01T08:43:08.377Z,28.00
2018-11-01T08:45:37.695Z,29.90
2018-11-01T08:48:07.048Z,27.90
2018-11-01T08:50:36.360Z,24.10
2018-11-01T08:53:05.833Z,18.50
2018-11-01T08:55:35.558Z,13.10
2018-11-01T08:58:05.973Z,16.80
2018-11-01T09:00:35.873Z,23.40
2018-11-01T09:03:05.422Z,17.10
2018-11-01T09:05:34.769Z,17.40
2018-11-01T09:08:04.079Z,16.80
2018-11-01T09:10:33.602Z,10.20
2018-11-01T09:13:03.070Z,11.50
2018-11-01T09:15:33.539Z,15.40
2018-11-01T09:18:03.105Z,13.70
2018-11-01T09:20:32.128Z,19.20
2018-11-01T09:23:01.453Z,20.70
2018-11-01T09:25:30.772Z,28.00
2018-11-01T09:28:00.332Z,33.40
2018-11-01T09:30:29.900Z,31.70
2018-11-01T09:33:00.228Z,28.70
2018-11-01T09:35:29.703Z,23.10
2018-11-01T09:37:59.228Z,19.50
2018-11-01T09:40:28.640Z,15.40
2018-11-01T09:42:58.244Z,14.50
2018-11-01T09:45:27.554Z,15.70
2018-11-01T09:47:56.840Z,13.20
2018-11-01T09:50:26.451Z,13.30
2018-11-01T09:52:55.695Z,10.50
2018-11-01T09:55:25.050Z,10.90
2018-11-01T09:57:54.315Z,19.10
2018-11-01T10:00:23.650Z,25.60
2018-11-01T10:02:53.593Z,29.30
2018-11-01T10:05:22.912Z,27.20
2018-11-01T10:07:52.761Z,25.00
2018-11-01T10:10:22.332Z,22.90
2018-11-01T10:12:51.645Z,23.70
2018-11-01T10:15:21.242Z,26.60
2018-11-01T10:17:51.312Z,29.50
2018-11-01T10:20:20.472Z,30.50
2018-11-01T10:22:50.202Z,26.20
2018-11-01T10:25:19.728Z,21.90
2018-11-01T10:27:49.333Z,25.30
2018-11-01T10:30:20.248Z,24.40
2018-11-01T10:32:49.747Z,25.60
2018-11-01T10:35:19.297Z,22.60
2018-11-01T10:37:48.606Z,20.80
2018-11-01T10:40:19.626Z,16.80
2018-11-01T10:42:48.907Z,12.70
2018-11-01T10:45:18.256Z,8.70
2018-11-01T10:47:47.767Z,6.40
2018-11-01T10:50:18.704Z,7.90
2018-11-01T10:52:48.269Z,6.30
2018-11-01T10:55:17.738Z,7.20
2018-11-01T10:57:47.029Z,5.90
2018-11-01T11:00:21.677Z,2.40
2018-11-01T11:02:51.810Z,1.10
2018-11-01T11:05:22.272Z,1.00
2018-11-01T11:07:51.924Z,1.00
2018-11-01T11:10:21.218Z,1.00
2018-11-01T11:12:51.177Z,1.00
2018-11-01T11:15:20.632Z,1.00
2018-11-01T11:17:49.925Z,1.00
2018-11-01T11:20:19.789Z,1.00
2018-11-01T11:22:49.841Z,1.00
2018-11-01T11:25:19.152Z,1.00
2018-11-01T11:27:48.618Z,1.00
2018-11-01T11:30:17.926Z,1.00
2018-11-01T11:32:47.329Z,1.00
2018-11-01T11:35:16.655Z,1.00
2018-11-01T11:37:46.741Z,1.00
2018-11-01T11:40:16.809Z,1.00
2018-11-01T11:42:46.090Z,1.00
2018-11-01T11:45:15.229Z,1.00
2018-11-01T11:47:44.823Z,1.00
2018-11-01T11:50:14.451Z,1.00
2018-11-01T11:52:44.833Z,1.00
2018-11-01T11:55:14.198Z,1.00
2018-11-01T11:57:44.403Z,1.00
2018-11-01T12:00:14.665Z,1.00
2018-11-01T12:02:45.324Z,1.00
2018-11-01T12:05:15.006Z,6.50
2018-11-01T12:07:45.622Z,9.00
2018-11-01T12:10:15.170Z,3.00
2018-11-01T12:12:44.723Z,1.60
2018-11-01T12:15:14.294Z,1.00
2018-11-01T12:17:43.643Z,18.30
2018-11-01T12:20:13.924Z,4.60
2018-11-01T12:22:43.227Z,6.40
2018-11-01T12:25:12.609Z,12.20
2018-11-01T12:27:41.946Z,17.60
2018-11-01T12:30:12.339Z,13.50
2018-11-01T12:32:41.728Z,11.20
2018-11-01T12:35:11.545Z,11.20
2018-11-01T12:37:41.320Z,6.30
2018-11-01T12:40:12.226Z,6.30
2018-11-01T12:42:41.904Z,7.80
2018-11-01T12:45:12.830Z,8.80
2018-11-01T12:47:42.443Z,6.30
2018-11-01T12:50:13.554Z,7.30
2018-11-01T12:52:43.040Z,5.20
2018-11-01T12:55:12.668Z,3.00
2018-11-01T12:57:41.978Z,1.10
2018-11-01T13:00:12.423Z,1.90
2018-11-01T13:02:42.003Z,1.00
2018-11-01T13:05:11.500Z,1.00
2018-11-01T13:07:41.291Z,4.00
2018-11-01T13:10:10.911Z,3.00
2018-11-01T13:12:40.525Z,1.40
2018-11-01T13:15:11.553Z,1.00
2018-11-01T13:17:40.901Z,1.00
2018-11-01T13:20:10.747Z,8.30
2018-11-01T13:22:40.352Z,15.00
2018-11-01T13:25:10.814Z,11.60
2018-11-01T13:27:40.589Z,6.80
2018-11-01T13:30:11.929Z,8.30
2018-11-01T13:32:41.672Z,5.60
2018-11-01T13:35:11.186Z,8.60
2018-11-01T13:37:40.665Z,11.70
2018-11-01T13:40:11.452Z,14.10
2018-11-01T13:42:41.091Z,12.90
2018-11-01T13:45:10.693Z,12.30
2018-11-01T13:47:40.088Z,12.70
2018-11-01T13:50:11.405Z,8.30
2018-11-01T13:52:40.998Z,6.10
2018-11-01T13:55:11.627Z,6.90
2018-11-01T13:57:41.140Z,4.80
2018-11-01T14:00:12.314Z,3.60
2018-11-01T14:02:42.564Z,4.10
2018-11-01T14:05:14.255Z,2.90
2018-11-01T14:07:44.561Z,1.10
2018-11-01T14:10:15.410Z,2.00
2018-11-01T14:12:44.933Z,2.40
2018-11-01T14:15:14.622Z,2.60
2018-11-01T14:17:43.880Z,1.00
2018-11-01T14:20:14.013Z,1.00
2018-11-01T14:22:43.581Z,1.00
2018-11-01T14:25:13.787Z,1.00
2018-11-01T14:27:43.508Z,1.00
2018-11-01T14:30:14.319Z,1.00
2018-11-01T14:32:43.909Z,1.00
2018-11-01T14:35:13.479Z,1.00
2018-11-01T14:37:42.817Z,1.00
2018-11-01T14:40:14.786Z,1.00
2018-11-01T14:42:44.181Z,1.00
2018-11-01T14:45:13.735Z,1.00
2018-11-01T14:47:43.783Z,1.00
2018-11-01T14:50:13.125Z,1.00
2018-11-01T14:52:43.022Z,1.00
2018-11-01T14:55:12.985Z,1.00
2018-11-01T14:57:43.465Z,1.00
2018-11-01T15:00:11.856Z,1.00
2018-11-01T15:02:41.191Z,1.00
2018-11-01T15:05:11.586Z,1.00
2018-11-01T15:07:41.191Z,1.00
2018-11-01T15:10:13.928Z,1.00
2018-11-01T15:12:43.845Z,1.00
2018-11-01T15:15:13.248Z,1.00
2018-11-01T15:17:42.946Z,1.00
2018-11-01T15:20:12.830Z,1.00
2018-11-01T15:22:42.471Z,1.00
2018-11-01T15:25:12.145Z,1.00
2018-11-01T15:27:41.643Z,1.00
2018-11-01T15:30:13.761Z,1.00
2018-11-01T15:32:43.658Z,1.00
2018-11-01T15:35:13.502Z,1.00
2018-11-01T15:37:42.772Z,1.00
2018-11-01T15:40:13.622Z,1.00
2018-11-01T15:42:43.808Z,1.00
2018-11-01T15:45:14.193Z,1.00
2018-11-01T15:47:44.516Z,1.00
2018-11-01T15:50:14.533Z,1.00
2018-11-01T15:52:44.395Z,1.00
2018-11-01T15:55:13.732Z,1.00
2018-11-01T15:57:43.143Z,1.00
2018-11-01T16:00:13.803Z,1.00
2018-11-01T16:02:44.261Z,1.00
2018-11-01T16:05:14.569Z,1.00
2018-11-01T16:07:44.271Z,1.00
2018-11-01T16:10:14.052Z,1.00
2018-11-01T16:12:43.480Z,1.00
2018-11-01T16:15:16.020Z,1.00
2018-11-01T16:17:46.061Z,1.40
2018-11-01T16:20:15.759Z,3.50
2018-11-01T16:22:45.302Z,3.80
2018-11-01T16:25:14.560Z,4.00
2018-11-01T16:27:44.092Z,8.70
2018-11-01T16:30:13.488Z,15.90
2018-11-01T16:32:42.865Z,22.80
2018-11-01T16:35:12.174Z,36.50
2018-11-01T16:37:41.744Z,44.50
2018-11-01T16:40:12.122Z,52.00
2018-11-01T16:42:41.366Z,54.60
2018-11-01T16:45:13.430Z,57.60
2018-11-01T16:47:43.340Z,62.70
2018-11-01T16:50:12.869Z,65.70
2018-11-01T16:52:42.735Z,77.70
2018-11-01T16:55:12.616Z,79.20
2018-11-01T16:57:41.944Z,76.70
2018-11-01T17:00:12.635Z,75.90
2018-11-01T17:02:42.300Z,75.50
2018-11-01T17:05:12.468Z,74.60
2018-11-01T17:07:41.962Z,74.90
2018-11-01T17:10:12.744Z,75.20
2018-11-01T17:12:42.267Z,71.20
2018-11-01T17:15:13.424Z,68.70
2018-11-01T17:17:42.880Z,69.10
2018-11-01T17:20:12.391Z,73.80
2018-11-01T17:22:42.286Z,76.90
2018-11-01T17:25:12.007Z,78.10
2018-11-01T17:27:41.782Z,75.50
2018-11-01T17:30:11.358Z,78.40
2018-11-01T17:32:46.202Z,83.20
2018-11-01T17:35:15.900Z,85.20
2018-11-01T17:37:45.306Z,85.40
2018-11-01T17:40:15.062Z,87.70
2018-11-01T17:42:45.061Z,87.70
2018-11-01T17:45:14.405Z,90.00
2018-11-01T17:47:43.974Z,90.60
2018-11-01T17:50:14.906Z,90.20
2018-11-01T17:52:44.315Z,90.50
2018-11-01T17:55:13.933Z,91.30
2018-11-01T17:57:44.403Z,91.30
2018-11-01T18:00:14.909Z,91.30
2018-11-01T18:02:44.538Z,91.40
2018-11-01T18:05:14.592Z,91.20
2018-11-01T18:07:44.640Z,91.10
2018-11-01T18:10:13.933Z,92.10
2018-11-01T18:12:43.531Z,94.40
2018-11-01T18:15:12.735Z,94.40
2018-11-01T18:17:42.234Z,95.00
2018-11-01T18:20:12.820Z,95.00
2018-11-01T18:22:42.950Z,94.90
2018-11-01T18:25:14.680Z,94.40
2018-11-01T18:27:44.531Z,94.60
2018-11-01T18:30:15.187Z,95.60
2018-11-01T18:32:45.737Z,97.70
2018-11-01T18:35:15.081Z,98.30
2018-11-01T18:37:44.937Z,99.60
2018-11-01T18:40:16.969Z,98.50
2018-11-01T18:42:46.237Z,99.40
2018-11-01T18:45:15.954Z,98.60
2018-11-01T18:47:45.713Z,97.90
2018-11-01T18:50:16.231Z,97.90
2018-11-01T18:52:46.223Z,98.50
2018-11-01T18:55:15.613Z,98.10
2018-11-01T18:57:45.862Z,98.50
2018-11-01T19:00:16.464Z,98.00
2018-11-01T19:02:46.292Z,98.70
2018-11-01T19:05:15.814Z,98.70
2018-11-01T19:07:45.702Z,98.60
2018-11-01T19:10:15.906Z,98.70
2018-11-01T19:12:45.550Z,98.70
2018-11-01T19:15:15.579Z,98.90
2018-11-01T19:17:45.334Z,99.90
2018-11-01T19:20:14.694Z,99.60
2018-11-01T19:22:44.237Z,99.50
2018-11-01T19:25:13.781Z,99.90
2018-11-01T19:27:43.232Z,99.90
2018-11-01T19:30:13.349Z,99.90
2018-11-01T19:32:43.498Z,99.90
2018-11-01T19:35:13.621Z,99.90
2018-11-01T19:37:43.511Z,99.50
2018-11-01T19:40:14.782Z,99.30
2018-11-01T19:42:45.176Z,99.70
2018-11-01T19:45:14.655Z,99.90
2018-11-01T19:47:44.473Z,99.90
2018-11-01T19:50:15.156Z,99.90
2018-11-01T19:52:44.644Z,99.90
2018-11-01T19:55:14.324Z,99.90
2018-11-01T19:57:43.724Z,99.90
2018-11-01T20:00:14.960Z,99.90
2018-11-01T20:02:45.416Z,99.90
2018-11-01T20:05:15.295Z,99.70
2018-11-01T20:07:44.981Z,99.40
2018-11-01T20:10:15.270Z,99.60
2018-11-01T20:12:45.301Z,99.90
2018-11-01T20:15:14.571Z,99.90
2018-11-01T20:17:44.220Z,99.90
2018-11-01T20:20:14.506Z,99.60
2018-11-01T20:22:45.151Z,99.40
2018-11-01T20:25:14.738Z,98.90
2018-11-01T20:27:44.352Z,98.80
2018-11-01T20:30:15.026Z,99.90
2018-11-01T20:32:44.858Z,99.90
2018-11-01T20:35:15.347Z,99.90
2018-11-01T20:37:44.650Z,98.90
2018-11-01T20:40:13.979Z,99.90
2018-11-01T20:42:43.850Z,99.90
2018-11-01T20:45:13.923Z,99.90
2018-11-01T20:47:43.657Z,99.90
2018-11-01T20:50:13.770Z,99.60
2018-11-01T20:52:43.336Z,99.90
2018-11-01T20:55:12.979Z,99.60
2018-11-01T20:57:42.323Z,99.10
2018-11-01T21:00:13.496Z,99.00
2018-11-01T21:02:43.079Z,99.90
2018-11-01T21:05:13.101Z,99.90
2018-11-01T21:07:42.843Z,99.90
2018-11-01T21:10:12.539Z,99.90
2018-11-01T21:12:41.883Z,99.90
2018-11-01T21:15:13.434Z,99.90
2018-11-01T21:17:42.772Z,99.90
2018-11-01T21:20:12.440Z,99.90
2018-11-01T21:22:42.011Z,99.90
2018-11-01T21:25:12.325Z,99.90
2018-11-01T21:27:42.074Z,99.90
2018-11-01T21:30:11.385Z,99.90
2018-11-01T21:32:40.744Z,99.90
2018-11-01T21:35:11.349Z,99.90
2018-11-01T21:37:41.076Z,99.90
2018-11-01T21:40:11.308Z,99.90
2018-11-01T21:42:40.999Z,99.90
2018-11-01T21:45:12.069Z,99.90
2018-11-01T21:47:42.649Z,99.90
2018-11-01T21:50:12.608Z,99.90
2018-11-01T21:52:42.544Z,99.90
2018-11-01T21:55:12.121Z,99.90
2018-11-01T21:57:41.863Z,99.90
2018-11-01T22:00:11.979Z,99.90
2018-11-01T22:02:42.086Z,99.90
2018-11-01T22:05:11.786Z,99.90
2018-11-01T22:07:41.652Z,99.90
2018-11-01T22:10:11.494Z,99.70
2018-11-01T22:12:40.853Z,98.70
2018-11-01T22:15:11.897Z,99.10
2018-11-01T22:17:41.940Z,98.80
2018-11-01T22:20:11.982Z,99.00
2018-11-01T22:22:41.266Z,99.10
2018-11-01T22:25:10.809Z,99.50
2018-11-01T22:27:40.303Z,99.00
2018-11-01T22:30:10.701Z,98.50
2018-11-01T22:32:40.632Z,98.60
2018-11-01T22:35:10.554Z,98.40
2018-11-01T22:37:40.770Z,98.20
2018-11-01T22:40:10.085Z,99.60
2018-11-01T22:42:39.394Z,98.90
2018-11-01T22:45:10.201Z,99.60
2018-11-01T22:47:39.777Z,99.90
2018-11-01T22:50:10.096Z,99.90
2018-11-01T22:52:40.729Z,99.90
2018-11-01T22:55:11.499Z,99.80
2018-11-01T22:57:41.664Z,99.00
2018-11-01T23:00:13.288Z,99.80
2018-11-01T23:02:43.143Z,99.70
2018-11-01T23:05:12.973Z,99.70
2018-11-01T23:07:42.615Z,99.70
2018-11-01T23:10:13.495Z,99.90
2018-11-01T23:12:42.839Z,99.80
2018-11-01T23:15:12.847Z,99.70
2018-11-01T23:17:43.448Z,99.10
2018-11-01T23:20:13.456Z,99.70
2018-11-01T23:22:43.080Z,99.50
2018-11-01T23:25:12.879Z,99.20
2018-11-01T23:27:42.621Z,99.50
2018-11-01T23:30:12.674Z,99.00
2018-11-01T23:32:42.358Z,98.70
2018-11-01T23:35:12.302Z,99.70
2018-11-01T23:37:46.894Z,99.70
2018-11-01T23:40:21.785Z,99.60
2018-11-01T23:42:56.549Z,99.90
2018-11-01T23:45:31.200Z,99.90
2018-11-01T23:48:01.060Z,99.90
2018-11-01T23:50:36.199Z,99.90
2018-11-01T23:53:11.220Z,99.90
2018-11-01T23:55:40.536Z,99.90
2018-11-01T23:58:10.133Z,99.90
